Appleton, New York
Current Conditions -  °F | °C
As of 10:53 PM on Tuesday 27 Jan 2015 (Local Time) from KIAG Reporting Station
Clear Clear  
Wind Chill: 10°   Ceiling: Unl
Heat Index: 10°   Visibility: 10mi
Dew Point:   Wind: 3mph
Humidity: 73%   Direction: 290°WNW
Pressure: 30.11"   Gusts: NA
Location:  43.33°N, 78.65°W
Report Text: KIAG 280353Z 29003KT 10SM CLR M12/M16 A3011 RMK AO2 SLP221 LAST T11221161
Loading
Personal Weather Stations






























Interactive Weather Map New forecast layout! Learn more

10-Day Weather Forecast

Advertisements
Track Severe Weather on mobile